Time;durP1;ratioP1;P1;durP2;ratioP2;P2;SDS_P1;SDS_P2;PMS_P1;PMS_P2;Temp;Humidity;BMP_temperature;BMP_pressure;BME280_temperature;BME280_humidity;BME280_pressure;Samples;Min_cycle;Max_cycle;Signal;HPM_P1;HPM_P2
2021/08/26 00:06:44;;;;;;;3.22;2.67;;;;;;;;;;5092435;28;20216;-46
2021/08/26 00:09:10;;;;;;;3.38;2.63;;;;;;;;;;5075756;28;20459;-46
2021/08/26 00:11:37;;;;;;;3.47;2.88;;;;;;;;;;5085916;28;20174;-46
2021/08/26 00:14:05;;;;;;;4.05;2.63;;;;;;;;;;5096277;28;20181;-46
2021/08/26 00:16:32;;;;;;;3.83;2.50;;;;;;;;;;5080431;28;20470;-46
2021/08/26 00:18:58;;;;;;;4.65;3.00;;;;;;;;;;5095621;28;20166;-46
2021/08/26 00:21:25;;;;;;;4.15;3.25;;;;;;;;;;5096047;28;20173;-46
2021/08/26 00:23:51;;;;;;;4.22;2.90;;;;;;;;;;5082476;28;20166;-46
2021/08/26 00:26:17;;;;;;;3.80;3.10;;;;;;;;;;5094979;28;20180;-46
2021/08/26 00:28:43;;;;;;;3.45;2.78;;;;;;;;;;5076119;28;20189;-46
2021/08/26 00:31:09;;;;;;;4.15;3.03;;;;;;;;;;5076958;28;20545;-46
2021/08/26 00:33:35;;;;;;;3.22;2.92;;;;;;;;;;5095436;28;20185;-46
2021/08/26 00:36:01;;;;;;;4.60;3.30;;;;;;;;;;5095923;28;20516;-46
2021/08/26 00:38:27;;;;;;;4.63;3.03;;;;;;;;;;5093311;28;20234;-46
2021/08/26 00:40:54;;;;;;;3.53;2.92;;;;;;;;;;5102330;28;20456;-46
2021/08/26 00:43:20;;;;;;;4.25;2.83;;;;;;;;;;5085662;28;20581;-46
2021/08/26 00:45:50;;;;;;;4.15;3.00;;;;;;;;;;5091735;28;20186;-46
2021/08/26 00:48:18;;;;;;;3.70;3.30;;;;;;;;;;5082885;28;20258;-46
2021/08/26 00:50:43;;;;;;;3.92;3.05;;;;;;;;;;5086747;28;20243;-46
2021/08/26 00:53:09;;;;;;;3.88;2.88;;;;;;;;;;5095597;28;20201;-46
2021/08/26 00:55:35;;;;;;;3.05;2.75;;;;;;;;;;5095188;28;20169;-46
2021/08/26 00:58:02;;;;;;;3.67;2.88;;;;;;;;;;5093230;28;20572;-46
2021/08/26 01:00:28;;;;;;;3.83;3.17;;;;;;;;;;5093886;28;20205;-46
2021/08/26 01:02:57;;;;;;;3.70;3.00;;;;;;;;;;5094499;28;20224;-45
2021/08/26 01:05:25;;;;;;;3.30;2.75;;;;;;;;;;5081129;28;20179;-45
2021/08/26 01:07:55;;;;;;;3.72;2.90;;;;;;;;;;5086028;28;20178;-45
2021/08/26 01:10:24;;;;;;;3.50;2.97;;;;;;;;;;5094503;28;20174;-45
2021/08/26 01:12:53;;;;;;;4.50;3.05;;;;;;;;;;5086745;28;20193;-46
2021/08/26 01:15:19;;;;;;;3.03;2.60;;;;;;;;;;5094196;28;20182;-45
2021/08/26 01:17:46;;;;;;;2.85;2.58;;;;;;;;;;5075723;28;20188;-45
2021/08/26 01:20:12;;;;;;;4.63;3.08;;;;;;;;;;5078118;28;20439;-46
2021/08/26 01:22:39;;;;;;;3.00;2.70;;;;;;;;;;5094904;28;20206;-46
2021/08/26 01:25:07;;;;;;;4.05;2.60;;;;;;;;;;5094551;28;20202;-46
2021/08/26 01:27:33;;;;;;;2.85;2.30;;;;;;;;;;5090973;28;20182;-46
2021/08/26 01:30:01;;;;;;;3.78;2.80;;;;;;;;;;5075638;28;20167;-46
2021/08/26 01:32:29;;;;;;;3.40;2.83;;;;;;;;;;5077795;28;20178;-46
2021/08/26 01:34:55;;;;;;;3.60;2.40;;;;;;;;;;5079873;28;20580;-46
2021/08/26 01:37:21;;;;;;;3.83;2.83;;;;;;;;;;5090729;28;20186;-45
2021/08/26 01:39:47;;;;;;;4.35;2.97;;;;;;;;;;5103355;28;20188;-45
2021/08/26 01:42:13;;;;;;;3.40;2.67;;;;;;;;;;5087108;28;20232;-45
2021/08/26 01:44:39;;;;;;;3.42;2.60;;;;;;;;;;5092423;28;20185;-45
2021/08/26 01:47:16;;;;;;;3.40;2.70;;;;;;;;;;5079334;28;20262;-45
2021/08/26 01:49:43;;;;;;;4.32;2.78;;;;;;;;;;5087503;28;20227;-45
2021/08/26 01:52:09;;;;;;;2.85;2.20;;;;;;;;;;5079077;28;20216;-45
2021/08/26 01:54:35;;;;;;;3.97;2.70;;;;;;;;;;5074718;28;20202;-45
2021/08/26 01:57:01;;;;;;;3.13;2.53;;;;;;;;;;5088110;28;20186;-45
2021/08/26 01:59:27;;;;;;;2.97;2.53;;;;;;;;;;5094357;28;20181;-45
2021/08/26 02:01:53;;;;;;;4.20;3.00;;;;;;;;;;5081467;28;20232;-45
2021/08/26 02:04:19;;;;;;;3.60;2.95;;;;;;;;;;5087458;28;20192;-45
2021/08/26 02:06:45;;;;;;;3.70;2.63;;;;;;;;;;5094346;28;20531;-45
2021/08/26 02:09:11;;;;;;;2.95;2.55;;;;;;;;;;5094541;28;20170;-45
2021/08/26 02:11:37;;;;;;;3.30;2.58;;;;;;;;;;5093506;28;20182;-45
2021/08/26 02:14:04;;;;;;;3.10;2.80;;;;;;;;;;5094602;28;20174;-45
2021/08/26 02:16:30;;;;;;;3.40;2.78;;;;;;;;;;5090987;28;20186;-45
2021/08/26 02:18:56;;;;;;;2.95;2.55;;;;;;;;;;5080866;28;20178;-45
2021/08/26 02:21:22;;;;;;;3.15;2.75;;;;;;;;;;5093777;28;20550;-45
2021/08/26 02:23:50;;;;;;;4.40;2.90;;;;;;;;;;5094560;28;20653;-45
2021/08/26 02:26:16;;;;;;;4.18;2.55;;;;;;;;;;5093990;28;20170;-45
2021/08/26 02:28:42;;;;;;;3.05;2.58;;;;;;;;;;5090596;28;20428;-45
2021/08/26 02:31:08;;;;;;;4.20;2.85;;;;;;;;;;5083045;28;20175;-45
2021/08/26 02:33:34;;;;;;;3.20;2.65;;;;;;;;;;5092098;28;20220;-46
2021/08/26 02:36:00;;;;;;;2.40;2.20;;;;;;;;;;5094100;28;20466;-46
2021/08/26 02:38:26;;;;;;;2.40;2.20;;;;;;;;;;5097879;28;20219;-46
2021/08/26 02:40:52;;;;;;;2.95;2.65;;;;;;;;;;5101642;28;20185;-46
2021/08/26 02:43:18;;;;;;;2.42;2.22;;;;;;;;;;5098052;28;20209;-46
2021/08/26 02:45:44;;;;;;;4.03;2.83;;;;;;;;;;5097366;28;20181;-46
2021/08/26 02:48:10;;;;;;;3.55;2.60;;;;;;;;;;5097663;28;20423;-46
2021/08/26 02:50:36;;;;;;;3.08;2.65;;;;;;;;;;5095008;28;20185;-46
2021/08/26 02:53:02;;;;;;;2.65;2.38;;;;;;;;;;5077791;28;20181;-46
2021/08/26 02:55:28;;;;;;;2.97;2.40;;;;;;;;;;5078538;28;20609;-46
2021/08/26 02:57:54;;;;;;;2.88;2.28;;;;;;;;;;5090887;28;20174;-45
2021/08/26 03:00:20;;;;;;;3.00;2.60;;;;;;;;;;5087803;28;20181;-45
2021/08/26 03:02:46;;;;;;;3.15;2.55;;;;;;;;;;5097813;28;20194;-45
2021/08/26 03:05:12;;;;;;;2.95;2.25;;;;;;;;;;5097440;28;20629;-45
2021/08/26 03:07:38;;;;;;;3.30;2.60;;;;;;;;;;5090923;28;20605;-45
2021/08/26 03:10:04;;;;;;;2.60;2.30;;;;;;;;;;5084238;28;20184;-46
2021/08/26 03:12:30;;;;;;;2.30;2.10;;;;;;;;;;5082153;28;20607;-46
2021/08/26 03:14:56;;;;;;;2.42;2.22;;;;;;;;;;5097501;28;20170;-46
2021/08/26 03:17:22;;;;;;;2.50;2.30;;;;;;;;;;5096679;28;20189;-46
2021/08/26 03:19:48;;;;;;;2.72;2.15;;;;;;;;;;5097261;28;20174;-46
2021/08/26 03:22:14;;;;;;;2.55;2.00;;;;;;;;;;5077420;28;20221;-46
2021/08/26 03:24:40;;;;;;;2.95;2.40;;;;;;;;;;5095477;28;20180;-46
2021/08/26 03:27:06;;;;;;;2.17;1.98;;;;;;;;;;5096546;28;20178;-46
2021/08/26 03:29:32;;;;;;;2.40;2.20;;;;;;;;;;5096594;28;20169;-46
2021/08/26 03:31:58;;;;;;;3.10;2.42;;;;;;;;;;5094137;28;20178;-46
2021/08/26 03:34:24;;;;;;;2.45;2.00;;;;;;;;;;5092671;28;20170;-46
2021/08/26 03:36:50;;;;;;;2.88;2.50;;;;;;;;;;5093135;28;20196;-46
2021/08/26 03:39:16;;;;;;;2.20;2.00;;;;;;;;;;5101696;28;20190;-46
2021/08/26 03:41:42;;;;;;;2.13;1.92;;;;;;;;;;5105590;28;20553;-46
2021/08/26 03:44:08;;;;;;;2.38;2.10;;;;;;;;;;5096360;28;20174;-46
2021/08/26 03:46:34;;;;;;;2.45;2.00;;;;;;;;;;5095988;28;20209;-46
2021/08/26 03:49:00;;;;;;;2.80;2.10;;;;;;;;;;5096293;28;20170;-46
2021/08/26 03:51:26;;;;;;;2.65;1.92;;;;;;;;;;5086710;28;20225;-46
2021/08/26 03:53:52;;;;;;;1.90;1.67;;;;;;;;;;5093332;28;20630;-46
2021/08/26 03:56:18;;;;;;;2.00;1.80;;;;;;;;;;5094303;28;20271;-46
2021/08/26 03:58:44;;;;;;;2.28;2.00;;;;;;;;;;5094108;28;20291;-46
2021/08/26 04:01:10;;;;;;;1.58;1.48;;;;;;;;;;5088587;28;20198;-46
2021/08/26 04:03:36;;;;;;;2.10;1.60;;;;;;;;;;5090635;28;20308;-45
2021/08/26 04:06:02;;;;;;;1.98;1.80;;;;;;;;;;5082742;28;20182;-45
2021/08/26 04:08:28;;;;;;;2.17;1.83;;;;;;;;;;5075553;28;20184;-45
2021/08/26 04:10:54;;;;;;;1.80;1.70;;;;;;;;;;5088158;28;20181;-45
2021/08/26 04:13:20;;;;;;;2.40;1.90;;;;;;;;;;5084140;28;20182;-46
2021/08/26 04:15:47;;;;;;;1.77;1.50;;;;;;;;;;5076041;28;20187;-46
2021/08/26 04:18:13;;;;;;;1.67;1.58;;;;;;;;;;5085541;28;20576;-45
2021/08/26 04:20:39;;;;;;;1.70;1.60;;;;;;;;;;5084366;28;20221;-45
2021/08/26 04:23:06;;;;;;;2.05;1.80;;;;;;;;;;5085127;28;20233;-45
2021/08/26 04:25:32;;;;;;;1.77;1.65;;;;;;;;;;5095766;28;20231;-45
2021/08/26 04:27:58;;;;;;;2.33;1.98;;;;;;;;;;5095365;28;20268;-45
2021/08/26 04:30:24;;;;;;;2.28;1.50;;;;;;;;;;5095770;28;20461;-45
2021/08/26 04:32:50;;;;;;;1.50;1.40;;;;;;;;;;5091825;28;20219;-45
2021/08/26 04:35:16;;;;;;;1.63;1.50;;;;;;;;;;5095363;28;20570;-45
2021/08/26 04:37:42;;;;;;;1.33;1.23;;;;;;;;;;5095014;28;20190;-45
2021/08/26 04:40:09;;;;;;;2.03;1.80;;;;;;;;;;5105695;28;20174;-45
2021/08/26 04:42:35;;;;;;;1.70;1.60;;;;;;;;;;5086428;28;20198;-45
2021/08/26 04:45:01;;;;;;;1.60;1.50;;;;;;;;;;5095731;28;20535;-45
2021/08/26 04:47:27;;;;;;;1.67;1.40;;;;;;;;;;5089622;28;20208;-45
2021/08/26 04:49:53;;;;;;;1.63;1.50;;;;;;;;;;5094999;28;20204;-45
2021/08/26 04:52:19;;;;;;;1.52;1.42;;;;;;;;;;5093436;28;20193;-45
2021/08/26 04:54:45;;;;;;;1.77;1.40;;;;;;;;;;5095741;28;20170;-45
2021/08/26 04:57:11;;;;;;;1.60;1.35;;;;;;;;;;5082339;28;20177;-45
2021/08/26 04:59:37;;;;;;;1.33;1.23;;;;;;;;;;5095177;28;20549;-45
2021/08/26 05:02:03;;;;;;;1.42;1.27;;;;;;;;;;5086489;28;20251;-45
2021/08/26 05:04:29;;;;;;;1.85;1.40;;;;;;;;;;5073894;28;20569;-45
2021/08/26 05:06:55;;;;;;;2.70;1.48;;;;;;;;;;5079504;28;20174;-45
2021/08/26 05:09:21;;;;;;;3.17;1.30;;;;;;;;;;5093954;28;20182;-45
2021/08/26 05:11:47;;;;;;;3.20;1.60;;;;;;;;;;5086010;28;20185;-45
2021/08/26 05:14:13;;;;;;;3.30;1.60;;;;;;;;;;5075551;28;20624;-45
2021/08/26 05:16:39;;;;;;;3.00;1.70;;;;;;;;;;5074787;28;20239;-44
2021/08/26 05:19:05;;;;;;;1.88;1.40;;;;;;;;;;5090663;28;20467;-45
2021/08/26 05:21:31;;;;;;;3.17;1.42;;;;;;;;;;5094705;28;20208;-45
2021/08/26 05:23:57;;;;;;;4.88;1.70;;;;;;;;;;5094393;28;20600;-45
2021/08/26 05:26:23;;;;;;;2.85;1.40;;;;;;;;;;5081523;28;20182;-45
2021/08/26 05:28:49;;;;;;;2.63;1.58;;;;;;;;;;5081591;28;20541;-45
2021/08/26 05:31:16;;;;;;;3.22;1.50;;;;;;;;;;5086226;28;20185;-46
2021/08/26 05:33:42;;;;;;;1.83;1.42;;;;;;;;;;5087133;28;20200;-46
2021/08/26 05:36:08;;;;;;;4.07;1.52;;;;;;;;;;5086360;28;20477;-46
2021/08/26 05:38:34;;;;;;;3.80;1.85;;;;;;;;;;5090871;28;20203;-46
2021/08/26 05:41:00;;;;;;;3.22;1.20;;;;;;;;;;5100139;28;20610;-46
2021/08/26 05:43:26;;;;;;;3.25;1.45;;;;;;;;;;5084811;28;20216;-46
2021/08/26 05:45:52;;;;;;;2.90;1.55;;;;;;;;;;5094455;28;20190;-46
2021/08/26 05:48:18;;;;;;;2.15;1.20;;;;;;;;;;5094020;28;20170;-46
2021/08/26 05:50:44;;;;;;;2.30;1.20;;;;;;;;;;5089642;28;20195;-46
2021/08/26 05:53:10;;;;;;;2.80;1.40;;;;;;;;;;5084281;28;20212;-46
2021/08/26 05:55:36;;;;;;;2.20;1.33;;;;;;;;;;5094601;28;20577;-46
2021/08/26 05:58:02;;;;;;;1.80;1.30;;;;;;;;;;5090116;28;20184;-46
2021/08/26 06:00:28;;;;;;;3.75;1.67;;;;;;;;;;5090862;28;20760;-46
2021/08/26 06:02:54;;;;;;;2.30;1.20;;;;;;;;;;5079150;28;20260;-46
2021/08/26 06:05:20;;;;;;;1.70;1.48;;;;;;;;;;5091022;28;20177;-46
2021/08/26 06:07:47;;;;;;;3.47;1.48;;;;;;;;;;5078625;28;20174;-46
2021/08/26 06:10:13;;;;;;;2.53;1.20;;;;;;;;;;5081883;28;20173;-46
2021/08/26 06:12:43;;;;;;;3.47;1.33;;;;;;;;;;5091416;28;20194;-46
2021/08/26 06:15:10;;;;;;;1.40;1.25;;;;;;;;;;5096407;28;20552;-46
2021/08/26 06:17:36;;;;;;;2.08;1.20;;;;;;;;;;5093710;28;20225;-46
2021/08/26 06:20:04;;;;;;;1.90;1.35;;;;;;;;;;5080526;28;20166;-46
2021/08/26 06:22:29;;;;;;;1.48;1.38;;;;;;;;;;5096077;28;20247;-46
2021/08/26 06:24:56;;;;;;;2.83;1.10;;;;;;;;;;5078105;28;20179;-46
2021/08/26 06:27:22;;;;;;;1.92;1.45;;;;;;;;;;5077717;28;20166;-46
2021/08/26 06:29:47;;;;;;;2.55;1.35;;;;;;;;;;5077922;28;20177;-46
2021/08/26 06:32:13;;;;;;;2.28;1.30;;;;;;;;;;5090421;28;20265;-46
2021/08/26 06:34:39;;;;;;;3.08;1.20;;;;;;;;;;5078582;28;20554;-46
2021/08/26 06:37:05;;;;;;;2.35;1.20;;;;;;;;;;5077257;28;20482;-46
2021/08/26 06:39:31;;;;;;;2.05;1.40;;;;;;;;;;5105725;28;20193;-46
2021/08/26 06:41:57;;;;;;;2.65;1.35;;;;;;;;;;5096331;28;20201;-46
2021/08/26 06:44:23;;;;;;;1.92;1.10;;;;;;;;;;5097211;28;20656;-46
2021/08/26 06:46:49;;;;;;;3.17;1.60;;;;;;;;;;5084730;28;20447;-46
2021/08/26 06:49:15;;;;;;;1.90;1.20;;;;;;;;;;5078448;28;20174;-46
2021/08/26 06:51:41;;;;;;;1.67;1.20;;;;;;;;;;5092972;28;20286;-45
2021/08/26 06:54:07;;;;;;;2.17;1.30;;;;;;;;;;5095103;28;20188;-45
2021/08/26 06:56:33;;;;;;;1.70;1.02;;;;;;;;;;5087135;28;20222;-45
2021/08/26 06:58:59;;;;;;;1.83;1.48;;;;;;;;;;5080315;28;20175;-45
2021/08/26 07:01:25;;;;;;;1.50;1.00;;;;;;;;;;5096271;28;20198;-45
2021/08/26 07:03:51;;;;;;;1.42;1.17;;;;;;;;;;5097068;28;20233;-45
2021/08/26 07:06:17;;;;;;;1.55;1.00;;;;;;;;;;5097381;28;20587;-45
2021/08/26 07:08:44;;;;;;;2.10;0.93;;;;;;;;;;5096999;28;20178;-45
2021/08/26 07:11:10;;;;;;;1.30;1.10;;;;;;;;;;5086819;28;20451;-45
2021/08/26 07:13:35;;;;;;;1.35;1.02;;;;;;;;;;5084059;28;20198;-45
2021/08/26 07:16:01;;;;;;;1.15;1.00;;;;;;;;;;5084523;28;20181;-45
2021/08/26 07:18:28;;;;;;;1.25;1.13;;;;;;;;;;5096750;28;20170;-45
2021/08/26 07:20:54;;;;;;;1.23;1.13;;;;;;;;;;5096642;28;20600;-45
2021/08/26 07:23:21;;;;;;;1.63;1.17;;;;;;;;;;5096242;28;20292;-46
2021/08/26 07:25:47;;;;;;;1.95;0.80;;;;;;;;;;5096581;28;20162;-46
2021/08/26 07:28:13;;;;;;;1.95;1.27;;;;;;;;;;5093837;28;20170;-46
2021/08/26 07:30:39;;;;;;;2.35;1.23;;;;;;;;;;5082867;28;20169;-46
2021/08/26 07:33:05;;;;;;;2.42;1.23;;;;;;;;;;5096419;28;20192;-46
2021/08/26 07:35:31;;;;;;;2.05;1.10;;;;;;;;;;5096902;28;20174;-46
2021/08/26 07:37:58;;;;;;;1.35;1.25;;;;;;;;;;5096135;28;20201;-46
2021/08/26 07:40:24;;;;;;;2.42;1.38;;;;;;;;;;5097183;28;20181;-46
2021/08/26 07:42:50;;;;;;;2.65;1.23;;;;;;;;;;5096440;28;20198;-46
2021/08/26 07:45:16;;;;;;;3.50;1.40;;;;;;;;;;5096797;28;20177;-46
2021/08/26 07:47:42;;;;;;;1.90;1.50;;;;;;;;;;5076239;28;20456;-46
2021/08/26 07:50:08;;;;;;;1.83;1.40;;;;;;;;;;5078578;28;20243;-46
2021/08/26 07:52:34;;;;;;;1.58;1.27;;;;;;;;;;5079034;28;20175;-46
2021/08/26 07:55:02;;;;;;;2.35;1.30;;;;;;;;;;5076459;28;20177;-46
2021/08/26 07:57:28;;;;;;;2.17;1.35;;;;;;;;;;5093013;28;20741;-46
2021/08/26 07:59:54;;;;;;;1.92;1.48;;;;;;;;;;5080986;28;20186;-46
2021/08/26 08:02:20;;;;;;;1.42;1.05;;;;;;;;;;5094421;28;20744;-46
2021/08/26 08:04:46;;;;;;;1.90;1.40;;;;;;;;;;5095704;28;20224;-46
2021/08/26 08:07:12;;;;;;;2.03;1.50;;;;;;;;;;5094811;28;20211;-45
2021/08/26 08:09:38;;;;;;;2.72;1.58;;;;;;;;;;5095537;28;20180;-45
2021/08/26 08:12:04;;;;;;;1.88;1.13;;;;;;;;;;5095175;28;20209;-45
2021/08/26 08:14:30;;;;;;;2.40;1.40;;;;;;;;;;5096207;28;20173;-45
2021/08/26 08:16:57;;;;;;;6.47;1.45;;;;;;;;;;5095469;28;20628;-46
2021/08/26 08:19:23;;;;;;;2.03;1.20;;;;;;;;;;5085656;28;20197;-46
2021/08/26 08:21:49;;;;;;;2.88;1.45;;;;;;;;;;5084543;28;20477;-46
2021/08/26 08:24:15;;;;;;;2.42;1.30;;;;;;;;;;5096129;28;20541;-46
2021/08/26 08:26:41;;;;;;;1.23;1.10;;;;;;;;;;5095366;28;20176;-46
2021/08/26 08:29:07;;;;;;;2.22;1.50;;;;;;;;;;5087113;28;20554;-46
2021/08/26 08:31:33;;;;;;;1.60;1.08;;;;;;;;;;5093161;28;20174;-46
2021/08/26 08:34:02;;;;;;;2.05;1.58;;;;;;;;;;5092412;28;20183;-46
2021/08/26 08:36:28;;;;;;;2.28;1.40;;;;;;;;;;5075589;28;20174;-46
2021/08/26 08:38:54;;;;;;;1.85;1.33;;;;;;;;;;5084069;28;20190;-46
2021/08/26 08:41:21;;;;;;;3.40;1.75;;;;;;;;;;5097637;28;20314;-46
2021/08/26 08:43:48;;;;;;;3.03;1.45;;;;;;;;;;5095724;28;20213;-46
2021/08/26 08:46:14;;;;;;;1.50;1.38;;;;;;;;;;5095481;28;20180;-46
2021/08/26 08:48:41;;;;;;;2.22;1.52;;;;;;;;;;5094432;28;20253;-46
2021/08/26 08:51:11;;;;;;;1.30;1.20;;;;;;;;;;5095071;28;20193;-46
2021/08/26 08:53:38;;;;;;;1.42;1.30;;;;;;;;;;5093073;28;20182;-46
2021/08/26 08:56:05;;;;;;;1.95;1.27;;;;;;;;;;5095035;28;20554;-46
2021/08/26 08:58:37;;;;;;;2.03;1.48;;;;;;;;;;5092289;28;21830;-46
2021/08/26 09:01:03;;;;;;;1.88;1.30;;;;;;;;;;5082648;28;20217;-46
2021/08/26 09:03:30;;;;;;;1.98;1.20;;;;;;;;;;5095402;28;20633;-46
2021/08/26 09:05:57;;;;;;;2.55;1.58;;;;;;;;;;5079952;28;20175;-46
2021/08/26 09:08:24;;;;;;;1.88;1.30;;;;;;;;;;5089917;28;20174;-46
2021/08/26 09:10:53;;;;;;;1.98;1.30;;;;;;;;;;5089827;28;20179;-46
2021/08/26 09:13:32;;;;;;;2.50;1.50;;;;;;;;;;5074827;28;20167;-46
2021/08/26 09:15:59;;;;;;;2.90;1.65;;;;;;;;;;5082473;28;20199;-46
2021/08/26 09:18:25;;;;;;;1.48;1.17;;;;;;;;;;5094312;28;20209;-46
2021/08/26 09:20:55;;;;;;;1.90;1.40;;;;;;;;;;5075888;28;20178;-46
2021/08/26 09:23:23;;;;;;;2.65;1.65;;;;;;;;;;5089452;28;20521;-46
2021/08/26 09:25:49;;;;;;;1.63;1.30;;;;;;;;;;5094405;28;20182;-46
2021/08/26 09:28:28;;;;;;;3.25;1.60;;;;;;;;;;5075736;28;20220;-46
2021/08/26 09:31:15;;;;;;;1.80;1.20;;;;;;;;;;5079950;28;20473;-46
2021/08/26 09:34:00;;;;;;;1.70;1.15;;;;;;;;;;5094435;28;20726;-46
2021/08/26 09:36:30;;;;;;;1.42;1.20;;;;;;;;;;5090763;28;20198;-46
2021/08/26 09:38:58;;;;;;;1.60;1.45;;;;;;;;;;5093541;28;20201;-46
2021/08/26 09:41:43;;;;;;;1.83;1.65;;;;;;;;;;5102655;28;20177;-46
2021/08/26 09:44:10;;;;;;;1.63;1.40;;;;;;;;;;5094699;28;20193;-46
2021/08/26 09:46:36;;;;;;;2.15;1.50;;;;;;;;;;5094449;28;20188;-46
2021/08/26 09:49:12;;;;;;;3.75;2.10;;;;;;;;;;5093048;28;20193;-46
2021/08/26 09:51:39;;;;;;;1.95;1.60;;;;;;;;;;5083304;28;20315;-46
2021/08/26 09:54:05;;;;;;;2.15;1.48;;;;;;;;;;5075247;28;20182;-46
2021/08/26 09:56:41;;;;;;;2.55;1.35;;;;;;;;;;5084009;28;20185;-46
2021/08/26 09:59:07;;;;;;;2.05;1.85;;;;;;;;;;5093460;28;20185;-46
2021/08/26 10:01:38;;;;;;;2.15;1.67;;;;;;;;;;5092537;28;20198;-46
2021/08/26 10:04:25;;;;;;;2.00;1.40;;;;;;;;;;5078537;28;20197;-46
2021/08/26 10:06:51;;;;;;;1.98;1.70;;;;;;;;;;5094075;28;20299;-46
2021/08/26 10:09:17;;;;;;;2.60;1.40;;;;;;;;;;5086870;28;20256;-45
2021/08/26 10:11:44;;;;;;;2.53;1.60;;;;;;;;;;5074209;28;20170;-45
2021/08/26 10:14:10;;;;;;;2.13;1.65;;;;;;;;;;5074173;28;20550;-45
2021/08/26 10:16:37;;;;;;;2.17;1.45;;;;;;;;;;5079853;28;20190;-45
2021/08/26 10:19:03;;;;;;;1.90;1.67;;;;;;;;;;5083522;28;20184;-45
2021/08/26 10:21:30;;;;;;;2.38;1.60;;;;;;;;;;5094091;28;20469;-45
2021/08/26 10:23:56;;;;;;;1.92;1.60;;;;;;;;;;5094287;28;20198;-45
2021/08/26 10:26:22;;;;;;;2.45;1.70;;;;;;;;;;5093707;28;20193;-45
2021/08/26 10:28:48;;;;;;;3.75;1.70;;;;;;;;;;5083572;28;20173;-46
2021/08/26 10:31:35;;;;;;;2.15;1.40;;;;;;;;;;5093656;28;20256;-46
2021/08/26 10:34:19;;;;;;;2.25;1.90;;;;;;;;;;5083674;28;20435;-46
2021/08/26 10:36:47;;;;;;;1.73;1.42;;;;;;;;;;5078737;28;20887;-46
2021/08/26 10:39:25;;;;;;;2.08;1.60;;;;;;;;;;5096940;28;20194;-46
2021/08/26 10:41:51;;;;;;;2.72;1.50;;;;;;;;;;5091805;28;20200;-46
2021/08/26 10:44:17;;;;;;;2.97;1.92;;;;;;;;;;5093739;28;20190;-46
2021/08/26 10:47:02;;;;;;;1.73;1.60;;;;;;;;;;5086024;28;20178;-46
2021/08/26 10:49:28;;;;;;;1.48;1.38;;;;;;;;;;5091742;28;20554;-45
2021/08/26 10:51:54;;;;;;;2.55;1.60;;;;;;;;;;5093860;28;20593;-45
2021/08/26 10:54:26;;;;;;;3.00;1.80;;;;;;;;;;5078314;28;20229;-45
2021/08/26 10:56:52;;;;;;;1.95;1.50;;;;;;;;;;5093365;28;20181;-45
2021/08/26 10:59:32;;;;;;;1.73;1.50;;;;;;;;;;5084919;28;20182;-45
2021/08/26 11:01:59;;;;;;;2.15;1.55;;;;;;;;;;5093369;28;20208;-45
2021/08/26 11:04:30;;;;;;;2.38;1.73;;;;;;;;;;5097383;28;20179;-45
2021/08/26 11:06:57;;;;;;;1.55;1.38;;;;;;;;;;5094546;28;20714;-45
2021/08/26 11:09:24;;;;;;;1.50;1.40;;;;;;;;;;5090348;28;20179;-45
2021/08/26 11:11:57;;;;;;;1.73;1.40;;;;;;;;;;5077187;28;20179;-45
2021/08/26 11:14:25;;;;;;;1.83;1.40;;;;;;;;;;5077274;28;20192;-45
2021/08/26 11:16:53;;;;;;;2.50;1.60;;;;;;;;;;5084902;28;20182;-45
2021/08/26 11:19:19;;;;;;;1.92;1.40;;;;;;;;;;5090901;28;20553;-45
2021/08/26 11:21:45;;;;;;;1.55;1.42;;;;;;;;;;5076832;28;20546;-45
2021/08/26 11:24:22;;;;;;;1.52;1.40;;;;;;;;;;5077203;28;20285;-45
2021/08/26 11:26:49;;;;;;;2.05;1.33;;;;;;;;;;5095438;28;20177;-45
2021/08/26 11:29:18;;;;;;;2.10;1.50;;;;;;;;;;5095789;28;20611;-45
2021/08/26 11:31:53;;;;;;;1.60;1.50;;;;;;;;;;5084498;28;20185;-45
2021/08/26 11:34:19;;;;;;;1.60;1.50;;;;;;;;;;5090511;28;20186;-45
2021/08/26 11:37:15;;;;;;;3.25;1.50;;;;;;;;;;5089632;28;20193;-45
2021/08/26 11:39:42;;;;;;;3.05;1.70;;;;;;;;;;5094170;28;20192;-45
2021/08/26 11:42:22;;;;;;;2.15;1.80;;;;;;;;;;5098492;28;20193;-45
2021/08/26 11:45:07;;;;;;;2.30;1.40;;;;;;;;;;5096572;28;20181;-45
2021/08/26 11:47:34;;;;;;;3.58;1.65;;;;;;;;;;5095564;28;20188;-45
2021/08/26 11:50:19;;;;;;;1.42;1.17;;;;;;;;;;5085829;28;20486;-45
2021/08/26 11:52:47;;;;;;;1.65;1.48;;;;;;;;;;5079776;28;20226;-45
2021/08/26 11:55:13;;;;;;;2.10;1.42;;;;;;;;;;5096687;28;20576;-46
2021/08/26 11:57:39;;;;;;;1.52;1.40;;;;;;;;;;5088507;28;20450;-46
2021/08/26 12:00:06;;;;;;;2.13;1.48;;;;;;;;;;5087477;28;20205;-46
2021/08/26 12:02:36;;;;;;;3.50;1.50;;;;;;;;;;5096435;28;20201;-46
2021/08/26 12:05:03;;;;;;;1.67;1.40;;;;;;;;;;5094742;28;20177;-46
2021/08/26 12:07:29;;;;;;;3.05;1.45;;;;;;;;;;5094941;28;20446;-46
2021/08/26 12:09:57;;;;;;;2.05;1.50;;;;;;;;;;5086380;28;20170;-46
2021/08/26 12:12:23;;;;;;;2.08;1.52;;;;;;;;;;5075763;28;20177;-46
2021/08/26 12:14:49;;;;;;;2.28;1.63;;;;;;;;;;5076236;28;20202;-44
2021/08/26 12:17:19;;;;;;;1.52;1.42;;;;;;;;;;5090864;28;20545;-45
2021/08/26 12:19:46;;;;;;;1.77;1.50;;;;;;;;;;5094007;28;20621;-45
2021/08/26 12:22:16;;;;;;;1.55;1.40;;;;;;;;;;5088350;28;20202;-45
2021/08/26 12:25:11;;;;;;;3.20;1.42;;;;;;;;;;5083664;28;20174;-45
2021/08/26 12:27:37;;;;;;;1.95;1.50;;;;;;;;;;5069454;28;20455;-45
2021/08/26 12:30:03;;;;;;;1.83;1.30;;;;;;;;;;5086991;28;20188;-45
2021/08/26 12:32:34;;;;;;;1.60;1.50;;;;;;;;;;5095178;28;20181;-45
2021/08/26 12:35:20;;;;;;;2.92;1.60;;;;;;;;;;5095575;28;20262;-45
2021/08/26 12:37:50;;;;;;;2.50;1.70;;;;;;;;;;5093395;28;20187;-45
2021/08/26 12:40:17;;;;;;;1.58;1.48;;;;;;;;;;5110954;28;20462;-45
2021/08/26 12:43:03;;;;;;;1.35;1.25;;;;;;;;;;5093635;28;20194;-45
2021/08/26 12:45:30;;;;;;;1.92;1.17;;;;;;;;;;5079473;28;20181;-45
2021/08/26 12:47:56;;;;;;;1.35;1.08;;;;;;;;;;5093359;28;20181;-45
2021/08/26 12:50:30;;;;;;;1.65;1.33;;;;;;;;;;5095269;28;20174;-46
2021/08/26 12:52:56;;;;;;;1.63;1.52;;;;;;;;;;5094113;28;20435;-45
2021/08/26 12:55:22;;;;;;;1.30;1.20;;;;;;;;;;5091392;28;20182;-45
2021/08/26 12:57:48;;;;;;;1.52;1.30;;;;;;;;;;5091651;28;20266;-46
2021/08/26 13:00:33;;;;;;;1.20;1.10;;;;;;;;;;5094956;28;20262;-45
2021/08/26 13:02:59;;;;;;;2.35;1.52;;;;;;;;;;5093908;28;20723;-45
2021/08/26 13:05:25;;;;;;;1.80;1.25;;;;;;;;;;5095169;28;20170;-45
2021/08/26 13:08:01;;;;;;;1.23;1.13;;;;;;;;;;5088767;28;20262;-45
2021/08/26 13:10:27;;;;;;;1.38;1.27;;;;;;;;;;5088795;28;20184;-45
2021/08/26 13:13:12;;;;;;;1.30;1.20;;;;;;;;;;5094852;28;20174;-45
2021/08/26 13:15:38;;;;;;;1.15;1.10;;;;;;;;;;5094912;28;20449;-45
2021/08/26 13:18:04;;;;;;;1.60;1.30;;;;;;;;;;5094641;28;20584;-45
2021/08/26 13:20:31;;;;;;;1.25;1.02;;;;;;;;;;5094435;28;20346;-45
2021/08/26 13:22:57;;;;;;;1.23;1.10;;;;;;;;;;5094851;28;20205;-45
2021/08/26 13:25:23;;;;;;;2.88;1.20;;;;;;;;;;5090467;28;20742;-45
2021/08/26 13:27:51;;;;;;;3.55;1.15;;;;;;;;;;5081586;28;20442;-45
2021/08/26 13:30:17;;;;;;;5.50;1.40;;;;;;;;;;5074844;28;20167;-46
2021/08/26 13:32:43;;;;;;;1.35;1.20;;;;;;;;;;5074553;28;20206;-46
2021/08/26 13:35:10;;;;;;;1.27;1.05;;;;;;;;;;5082363;28;20177;-46
2021/08/26 13:37:37;;;;;;;3.53;1.30;;;;;;;;;;5090328;28;20239;-46
2021/08/26 13:40:03;;;;;;;2.63;1.25;;;;;;;;;;5101041;28;20174;-45
2021/08/26 13:42:30;;;;;;;3.03;1.20;;;;;;;;;;5094512;28;20210;-45
2021/08/26 13:44:57;;;;;;;3.47;1.35;;;;;;;;;;5073245;28;20230;-45
2021/08/26 13:47:23;;;;;;;4.53;1.50;;;;;;;;;;5087521;28;20213;-45
2021/08/26 13:49:48;;;;;;;2.33;1.55;;;;;;;;;;5093677;28;20268;-45
2021/08/26 13:52:14;;;;;;;4.47;1.27;;;;;;;;;;5078970;28;20209;-45
2021/08/26 13:54:40;;;;;;;5.50;1.40;;;;;;;;;;5093924;28;20249;-45
2021/08/26 13:57:06;;;;;;;4.85;1.30;;;;;;;;;;5089830;28;20456;-45
2021/08/26 13:59:32;;;;;;;2.80;1.10;;;;;;;;;;5081445;28;20236;-45
2021/08/26 14:01:58;;;;;;;1.65;1.42;;;;;;;;;;5073932;28;20206;-45
2021/08/26 14:04:24;;;;;;;4.82;1.17;;;;;;;;;;5074680;28;20628;-45
2021/08/26 14:06:50;;;;;;;2.55;1.25;;;;;;;;;;5079626;28;20223;-45
2021/08/26 14:09:17;;;;;;;2.70;1.20;;;;;;;;;;5080830;28;20174;-45
2021/08/26 14:11:43;;;;;;;3.20;1.30;;;;;;;;;;5094634;28;20170;-45
2021/08/26 14:14:10;;;;;;;5.10;1.48;;;;;;;;;;5094149;28;20336;-45
2021/08/26 14:16:36;;;;;;;3.88;1.20;;;;;;;;;;5087229;28;20170;-45
2021/08/26 14:19:02;;;;;;;2.88;1.20;;;;;;;;;;5073645;28;20545;-46
2021/08/26 14:21:28;;;;;;;4.18;1.33;;;;;;;;;;5074309;28;20249;-45
2021/08/26 14:23:54;;;;;;;4.22;1.38;;;;;;;;;;5074135;28;20494;-46
2021/08/26 14:26:21;;;;;;;2.42;1.20;;;;;;;;;;5092312;28;20197;-45
2021/08/26 14:28:47;;;;;;;3.65;1.15;;;;;;;;;;5094029;28;20602;-45
2021/08/26 14:31:13;;;;;;;1.77;1.15;;;;;;;;;;5092185;28;20182;-45
2021/08/26 14:33:39;;;;;;;4.07;1.20;;;;;;;;;;5088554;28;20179;-45
2021/08/26 14:36:06;;;;;;;1.63;1.13;;;;;;;;;;5078668;28;20201;-45
2021/08/26 14:38:32;;;;;;;1.55;1.10;;;;;;;;;;5102527;28;20193;-45
2021/08/26 14:40:59;;;;;;;2.53;1.00;;;;;;;;;;5103857;28;20468;-45
2021/08/26 14:43:27;;;;;;;2.20;1.27;;;;;;;;;;5090343;28;20201;-45
2021/08/26 14:45:53;;;;;;;1.42;1.00;;;;;;;;;;5085510;28;20175;-45
2021/08/26 14:48:19;;;;;;;1.80;1.10;;;;;;;;;;5091973;28;20268;-45
2021/08/26 14:50:45;;;;;;;2.55;1.15;;;;;;;;;;5077923;28;20202;-45